Warren, New Jersey
Current Conditions -  °F | °C
As of 11:53 PM on Wednesday 22 Oct 2014 (Local Time) from KSMQ Reporting Station
Light Rain Light Rain  
Wind Chill: 52°   Ceiling: 5000
Heat Index: 52°   Visibility: 6mi
Dew Point: 47°   Wind: 9mph
Humidity: 83%   Direction: 350°N
Pressure: 29.75"   Gusts: 18mph
Location:  40.63°N, 74.51°W
Report Text: KSMQ 230353Z AUTO 35008G16KT 6SM -RA SCT026 BKN050 OVC070 11/08 A2975 RMK AO2 SLP076 P0010 T01110083
Loading
Personal Weather Stations






























Interactive Weather Map New forecast layout! Learn more

10-Day Weather Forecast

Advertisements
Track Severe Weather on mobile